Terminal Aerodrome Forecast
Issued by NWS San Angelo, TX

Home | Current Version | Previous Version | Text Only | Print | Product List | Glossary On
Versions: 1 2 3 4 5 6 7 8 9 10 11 12 13 14 15 16 17 18 19 20
000
FTUS44 KSJT 272300
TAFSJT
TAF
KSJT 272331Z 2800/2824 06012KT 5SM BR OVC007
     FM280300 06008KT 4SM -FZDZ BR OVC006
     FM280800 07007KT 2SM -FZDZ BR OVC002=

USA.gov is the U.S. government's official web portal to all federal, state and local government web resources and services.